Chicago, Illinois
Traffic Map
Current Weather Conditions
Chicago, Illinois
Broken Clouds
Broken Clouds
75°
Feels Like: 75°
Wind Chill: 75° Ceiling: 19000
Heat Index: 75° Visibility: 10mi
Dew Point: 62° Wind: 10mph
Humidity: 64% Direction: 70° (ENE)
Pressure: 30.12in Gusts: 0mph
Raw Report DataKMDW 270053Z 07009KT 10SM SCT150 BKN190 BKN250 24/17 A3012 RMK AO2 SLP192 T02390167
Traffic Incident Summary
Active as of:
Severity:
Category:
InformationThere was an issue retrieving the traffic information for this location. Please try a different location or try again shortly.
Advertisements
Track Severe Weather on mobile